TimeCDT,TemperatureF,Dew PointF,Humidity,Sea Level PressureIn,VisibilityMPH,Wind Direction,Wind SpeedMPH,Gust SpeedMPH,PrecipitationIn,Events,Conditions,WindDirDegrees,DateUTC
12:15 AM,36.3,31.3,82,29.96,10.0,NNE,13.8,-,N/A,,Scattered Clouds,20,2013-03-16 05:15:00
12:35 AM,35.6,30.2,81,29.99,10.0,NNE,13.8,-,N/A,,Overcast,30,2013-03-16 05:35:00
12:55 AM,32.0,28.4,87,30.02,7.0,NNE,11.5,-,N/A,,Overcast,20,2013-03-16 05:55:00
1:15 AM,29.8,27.1,90,30.02,3.0,North,16.1,-,N/A,,Overcast,360,2013-03-16 06:15:00
1:35 AM,29.3,27.1,92,30.02,4.0,North,13.8,-,N/A,,Overcast,10,2013-03-16 06:35:00
1:55 AM,29.7,27.5,92,30.02,7.0,North,17.3,23.0,N/A,,Overcast,360,2013-03-16 06:55:00
2:15 AM,30.2,27.3,89,30.03,7.0,North,15.0,18.4,N/A,,Overcast,360,2013-03-16 07:15:00
2:35 AM,30.0,26.4,86,30.03,10.0,North,16.1,24.2,N/A,,Overcast,360,2013-03-16 07:35:00
2:55 AM,29.8,25.7,85,30.03,10.0,North,17.3,-,N/A,,Overcast,350,2013-03-16 07:55:00
3:15 AM,29.3,25.3,85,30.04,10.0,North,19.6,26.5,N/A,,Overcast,350,2013-03-16 08:15:00
3:35 AM,29.3,25.3,85,30.04,10.0,North,18.4,25.3,N/A,,Overcast,360,2013-03-16 08:35:00
3:55 AM,29.3,25.3,85,30.05,10.0,North,18.4,23.0,N/A,,Overcast,360,2013-03-16 08:55:00
4:15 AM,29.3,25.0,84,30.07,10.0,North,17.3,21.9,N/A,,Overcast,350,2013-03-16 09:15:00
4:35 AM,29.3,24.4,82,30.07,10.0,NNW,15.0,-,N/A,,Overcast,340,2013-03-16 09:35:00
4:55 AM,29.1,23.9,81,30.07,10.0,North,18.4,-,N/A,,Overcast,350,2013-03-16 09:55:00
5:15 AM,28.2,23.2,81,30.08,10.0,North,19.6,24.2,N/A,,Overcast,350,2013-03-16 10:15:00
5:35 AM,28.0,23.2,82,30.07,10.0,North,20.7,-,N/A,,Overcast,360,2013-03-16 10:35:00
5:55 AM,27.5,23.7,86,30.07,10.0,North,16.1,21.9,N/A,,Overcast,360,2013-03-16 10:55:00
6:15 AM,26.6,22.8,86,30.09,10.0,North,18.4,24.2,N/A,,Overcast,360,2013-03-16 11:15:00
6:35 AM,25.3,22.1,87,30.09,7.0,North,18.4,21.9,N/A,,Overcast,360,2013-03-16 11:35:00
6:55 AM,24.8,21.4,87,30.09,10.0,North,16.1,21.9,N/A,,Overcast,360,2013-03-16 11:55:00
7:15 AM,24.4,21.0,87,30.10,10.0,North,15.0,19.6,N/A,,Overcast,360,2013-03-16 12:15:00
7:35 AM,24.3,21.0,87,30.09,7.0,North,13.8,-,N/A,,Overcast,360,2013-03-16 12:35:00
7:55 AM,24.3,21.2,88,30.10,7.0,North,16.1,19.6,N/A,,Overcast,350,2013-03-16 12:55:00
8:15 AM,23.9,20.8,88,30.10,7.0,North,6.9,-,N/A,,Overcast,10,2013-03-16 13:15:00
8:35 AM,24.8,21.2,86,30.10,5.0,North,13.8,18.4,N/A,,Overcast,10,2013-03-16 13:35:00
8:55 AM,24.1,21.0,88,30.10,7.0,North,11.5,-,N/A,,Overcast,10,2013-03-16 13:55:00
9:15 AM,23.9,20.1,85,30.09,7.0,North,13.8,-,N/A,,Overcast,360,2013-03-16 14:15:00
9:35 AM,23.9,19.8,84,30.11,7.0,North,12.7,-,N/A,,Overcast,10,2013-03-16 14:35:00
9:55 AM,23.7,19.4,84,30.11,7.0,NNE,10.4,-,N/A,,Overcast,20,2013-03-16 14:55:00
10:15 AM,23.7,19.0,82,30.12,10.0,North,13.8,19.6,N/A,,Overcast,360,2013-03-16 15:15:00
10:35 AM,23.9,18.5,80,30.12,10.0,North,11.5,-,N/A,,Overcast,360,2013-03-16 15:35:00
10:55 AM,24.3,18.7,79,30.12,10.0,North,12.7,-,N/A,,Overcast,360,2013-03-16 15:55:00
11:15 AM,24.1,18.3,79,30.12,10.0,North,9.2,-,N/A,,Overcast,360,2013-03-16 16:15:00
11:35 AM,24.6,18.5,78,30.13,10.0,North,13.8,-,N/A,,Overcast,360,2013-03-16 16:35:00
11:55 AM,24.8,18.5,77,30.13,10.0,North,13.8,-,N/A,,Overcast,360,2013-03-16 16:55:00
12:15 PM,25.2,18.3,75,30.11,10.0,North,11.5,16.1,N/A,,Overcast,10,2013-03-16 17:15:00
12:35 PM,25.7,18.0,73,30.11,10.0,North,10.4,-,N/A,,Overcast,350,2013-03-16 17:35:00
12:55 PM,25.7,18.5,74,30.10,10.0,North,12.7,-,N/A,,Overcast,360,2013-03-16 17:55:00
1:15 PM,27.5,18.9,70,30.09,10.0,North,11.5,-,N/A,,Overcast,360,2013-03-16 18:15:00
1:35 PM,27.9,18.3,67,30.09,10.0,NNW,10.4,-,N/A,,Mostly Cloudy,340,2013-03-16 18:35:00
1:55 PM,29.1,18.5,65,30.09,10.0,North,8.1,-,N/A,,Mostly Cloudy,360,2013-03-16 18:55:00
2:15 PM,29.5,18.5,64,30.08,10.0,North,6.9,-,N/A,,Overcast,350,2013-03-16 19:15:00
2:35 PM,29.3,18.1,63,30.07,10.0,NNW,6.9,-,N/A,,Overcast,330,2013-03-16 19:35:00
2:55 PM,30.0,18.5,62,30.05,10.0,North,8.1,-,N/A,,Overcast,360,2013-03-16 19:55:00
3:15 PM,30.4,18.5,61,30.05,10.0,NNE,6.9,-,N/A,,Overcast,30,2013-03-16 20:15:00
3:35 PM,30.4,18.3,61,30.04,10.0,NNE,3.5,-,N/A,,Overcast,20,2013-03-16 20:35:00
3:55 PM,30.6,18.0,60,30.04,10.0,NNE,4.6,-,N/A,,Overcast,20,2013-03-16 20:55:00
4:15 PM,30.6,18.0,60,30.05,10.0,Calm,Calm,-,N/A,,Overcast,0,2013-03-16 21:15:00
4:35 PM,30.9,18.5,60,30.04,10.0,NE,3.5,-,N/A,,Overcast,40,2013-03-16 21:35:00
4:55 PM,31.1,18.1,59,30.03,10.0,NE,6.9,-,N/A,,Overcast,40,2013-03-16 21:55:00
5:15 PM,31.6,18.3,58,30.04,10.0,NE,5.8,-,N/A,,Overcast,50,2013-03-16 22:15:00
5:35 PM,31.1,17.8,58,30.04,10.0,Calm,Calm,-,N/A,,Overcast,0,2013-03-16 22:35:00
5:55 PM,31.3,18.3,59,30.05,10.0,East,4.6,-,N/A,,Overcast,100,2013-03-16 22:55:00
6:15 PM,31.1,18.7,60,30.05,10.0,East,4.6,-,N/A,,Overcast,100,2013-03-16 23:15:00
6:35 PM,31.1,19.2,61,30.04,10.0,East,6.9,-,N/A,,Overcast,80,2013-03-16 23:35:00
6:55 PM,31.1,19.2,61,30.04,10.0,East,4.6,-,N/A,,Overcast,80,2013-03-16 23:55:00
7:15 PM,31.5,19.4,61,30.04,10.0,East,5.8,-,N/A,,Overcast,80,2013-03-17 00:15:00
7:35 PM,31.5,19.8,62,30.04,10.0,ENE,5.8,-,N/A,,Overcast,70,2013-03-17 00:35:00
7:55 PM,30.7,19.9,64,30.04,10.0,ENE,6.9,-,N/A,,Overcast,60,2013-03-17 00:55:00
8:15 PM,30.7,20.1,65,30.04,10.0,East,12.7,-,N/A,,Overcast,90,2013-03-17 01:15:00
8:35 PM,30.6,19.9,65,30.04,10.0,East,12.7,-,N/A,,Overcast,100,2013-03-17 01:35:00
8:55 PM,30.2,19.8,65,30.05,10.0,East,11.5,-,N/A,,Overcast,100,2013-03-17 01:55:00
9:15 PM,29.8,18.9,64,30.06,10.0,East,11.5,-,N/A,,Overcast,100,2013-03-17 02:15:00
9:35 PM,28.8,21.2,73,30.05,10.0,East,11.5,-,N/A,,Overcast,90,2013-03-17 02:35:00
9:55 PM,28.2,21.2,75,30.04,10.0,East,12.7,-,N/A,,Overcast,90,2013-03-17 02:55:00
10:15 PM,27.9,20.7,74,30.04,10.0,East,12.7,18.4,N/A,,Overcast,100,2013-03-17 03:15:00
10:35 PM,27.5,19.9,73,30.04,10.0,East,12.7,-,N/A,,Overcast,100,2013-03-17 03:35:00
10:55 PM,27.9,19.4,71,30.06,10.0,East,11.5,-,N/A,,Overcast,80,2013-03-17 03:55:00
11:15 PM,27.5,19.4,72,30.07,10.0,East,10.4,-,N/A,,Overcast,80,2013-03-17 04:15:00
11:35 PM,27.5,19.4,72,30.06,10.0,East,10.4,-,N/A,,Overcast,80,2013-03-17 04:35:00
11:55 PM,26.8,19.4,74,30.05,10.0,East,12.7,-,N/A,,Overcast,100,2013-03-17 04:55:00